createdAt,value
2022-10-25T15:40:19.454Z,17.90
2022-10-25T15:50:20.022Z,16.70
2022-10-25T16:00:22.910Z,16.50
2022-10-25T16:10:24.484Z,15.90
2022-10-25T16:20:25.379Z,15.80
2022-10-25T16:30:26.121Z,15.40
2022-10-25T16:40:23.297Z,15.20
2022-10-25T16:50:23.896Z,14.80
2022-10-25T17:00:21.156Z,14.50
2022-10-25T17:10:20.143Z,14.30
2022-10-25T17:20:17.624Z,14.20
2022-10-25T17:30:16.597Z,14.10
2022-10-25T17:40:13.974Z,14.10
2022-10-25T17:50:13.001Z,14.10
2022-10-25T18:00:11.562Z,14.00
2022-10-25T18:10:12.576Z,14.00
2022-10-25T18:20:10.075Z,13.90
2022-10-25T18:30:07.997Z,13.80
2022-10-25T18:40:06.597Z,13.60
2022-10-25T18:50:04.187Z,13.40
2022-10-25T19:00:01.462Z,13.20
2022-10-25T19:09:58.660Z,13.10
2022-10-25T19:19:55.776Z,12.90
2022-10-25T19:29:53.062Z,12.70
2022-10-25T19:39:51.168Z,12.80
2022-10-25T19:49:49.757Z,12.70
2022-10-25T19:59:47.101Z,12.40
2022-10-25T20:09:44.445Z,12.50
2022-10-25T20:19:41.742Z,12.30
2022-10-25T20:29:40.139Z,12.30
2022-10-25T20:39:37.404Z,12.10
2022-10-25T20:49:35.136Z,12.20
2022-10-25T20:59:33.881Z,12.00
2022-10-25T21:09:31.089Z,12.00
2022-10-25T21:19:28.153Z,12.00
2022-10-25T21:29:25.408Z,12.00
2022-10-25T21:39:24.218Z,12.00
2022-10-25T21:49:21.455Z,12.00
2022-10-25T21:59:20.128Z,12.00
2022-10-25T22:09:17.391Z,12.00
2022-10-25T22:19:20.885Z,12.10
2022-10-25T22:29:18.289Z,12.10
2022-10-25T22:39:16.696Z,12.20
2022-10-25T22:49:13.884Z,12.10
2022-10-25T22:59:11.765Z,12.40
2022-10-25T23:09:10.102Z,12.20
2022-10-25T23:19:07.323Z,12.20
2022-10-25T23:29:04.647Z,12.20
2022-10-25T23:39:01.892Z,12.20
2022-10-25T23:48:59.108Z,12.30
2022-10-25T23:58:56.330Z,12.20
